sensor_id;sensor_type;location;lat;lon;timestamp;P1;durP1;ratioP1;P2;durP2;ratioP2
69847;SDS011;57143;55.940;37.496;2023-06-14T00:00:22;10.57;;;3.37;;
69847;SDS011;57143;55.940;37.496;2023-06-14T00:02:49;7.43;;;2.53;;
69847;SDS011;57143;55.940;37.496;2023-06-14T00:05:17;7.35;;;3.40;;
69847;SDS011;57143;55.940;37.496;2023-06-14T00:07:44;8.80;;;3.13;;
69847;SDS011;57143;55.940;37.496;2023-06-14T00:10:13;8.60;;;3.35;;
69847;SDS011;57143;55.940;37.496;2023-06-14T00:12:41;7.93;;;3.07;;
69847;SDS011;57143;55.940;37.496;2023-06-14T00:15:09;8.32;;;3.10;;
69847;SDS011;57143;55.940;37.496;2023-06-14T00:17:36;6.93;;;2.63;;
69847;SDS011;57143;55.940;37.496;2023-06-14T00:20:04;8.57;;;3.45;;
69847;SDS011;57143;55.940;37.496;2023-06-14T00:22:34;7.80;;;3.00;;
69847;SDS011;57143;55.940;37.496;2023-06-14T00:25:02;11.17;;;4.07;;
69847;SDS011;57143;55.940;37.496;2023-06-14T00:27:30;11.45;;;3.67;;
69847;SDS011;57143;55.940;37.496;2023-06-14T00:29:57;10.48;;;3.83;;
69847;SDS011;57143;55.940;37.496;2023-06-14T00:32:24;9.82;;;3.35;;
69847;SDS011;57143;55.940;37.496;2023-06-14T00:34:53;10.05;;;3.40;;
69847;SDS011;57143;55.940;37.496;2023-06-14T00:37:20;9.43;;;3.60;;
69847;SDS011;57143;55.940;37.496;2023-06-14T00:39:48;10.25;;;4.70;;
69847;SDS011;57143;55.940;37.496;2023-06-14T00:42:25;10.43;;;4.85;;
69847;SDS011;57143;55.940;37.496;2023-06-14T00:44:52;8.98;;;3.65;;
69847;SDS011;57143;55.940;37.496;2023-06-14T00:47:19;8.65;;;3.38;;
69847;SDS011;57143;55.940;37.496;2023-06-14T00:49:47;8.40;;;3.80;;
69847;SDS011;57143;55.940;37.496;2023-06-14T00:52:16;8.95;;;3.45;;
69847;SDS011;57143;55.940;37.496;2023-06-14T00:54:44;9.35;;;4.03;;
69847;SDS011;57143;55.940;37.496;2023-06-14T00:57:13;10.75;;;4.18;;
69847;SDS011;57143;55.940;37.496;2023-06-14T00:59:41;10.43;;;4.40;;
69847;SDS011;57143;55.940;37.496;2023-06-14T01:02:10;8.67;;;4.00;;
69847;SDS011;57143;55.940;37.496;2023-06-14T01:04:38;10.35;;;4.10;;
69847;SDS011;57143;55.940;37.496;2023-06-14T01:07:07;9.18;;;3.95;;
69847;SDS011;57143;55.940;37.496;2023-06-14T01:09:44;10.25;;;3.97;;
69847;SDS011;57143;55.940;37.496;2023-06-14T01:12:24;11.63;;;4.32;;
69847;SDS011;57143;55.940;37.496;2023-06-14T01:14:58;11.33;;;3.90;;
69847;SDS011;57143;55.940;37.496;2023-06-14T01:17:31;10.50;;;3.83;;
69847;SDS011;57143;55.940;37.496;2023-06-14T01:20:01;11.30;;;3.90;;
69847;SDS011;57143;55.940;37.496;2023-06-14T01:22:34;9.63;;;4.35;;
69847;SDS011;57143;55.940;37.496;2023-06-14T01:25:04;13.68;;;4.70;;
69847;SDS011;57143;55.940;37.496;2023-06-14T01:27:32;13.87;;;4.90;;
69847;SDS011;57143;55.940;37.496;2023-06-14T01:30:00;10.85;;;4.63;;
69847;SDS011;57143;55.940;37.496;2023-06-14T01:32:29;10.70;;;4.78;;
69847;SDS011;57143;55.940;37.496;2023-06-14T01:34:56;10.00;;;4.60;;
69847;SDS011;57143;55.940;37.496;2023-06-14T01:37:23;10.60;;;4.75;;
69847;SDS011;57143;55.940;37.496;2023-06-14T01:39:52;12.63;;;5.03;;
69847;SDS011;57143;55.940;37.496;2023-06-14T01:42:21;11.18;;;4.90;;
69847;SDS011;57143;55.940;37.496;2023-06-14T01:44:50;12.13;;;5.35;;
69847;SDS011;57143;55.940;37.496;2023-06-14T01:47:20;11.50;;;4.75;;
69847;SDS011;57143;55.940;37.496;2023-06-14T01:49:47;8.60;;;4.10;;
69847;SDS011;57143;55.940;37.496;2023-06-14T01:52:14;10.53;;;4.40;;
69847;SDS011;57143;55.940;37.496;2023-06-14T01:54:41;10.85;;;4.20;;
69847;SDS011;57143;55.940;37.496;2023-06-14T01:57:09;10.88;;;5.10;;
69847;SDS011;57143;55.940;37.496;2023-06-14T01:59:38;12.43;;;5.03;;
69847;SDS011;57143;55.940;37.496;2023-06-14T02:02:05;10.73;;;4.68;;
69847;SDS011;57143;55.940;37.496;2023-06-14T02:04:32;13.00;;;4.40;;
69847;SDS011;57143;55.940;37.496;2023-06-14T02:06:59;10.48;;;4.55;;
69847;SDS011;57143;55.940;37.496;2023-06-14T02:09:27;11.13;;;5.38;;
69847;SDS011;57143;55.940;37.496;2023-06-14T02:11:54;10.75;;;5.07;;
69847;SDS011;57143;55.940;37.496;2023-06-14T02:14:21;10.32;;;4.43;;
69847;SDS011;57143;55.940;37.496;2023-06-14T02:16:50;10.77;;;4.80;;
69847;SDS011;57143;55.940;37.496;2023-06-14T02:19:18;10.02;;;4.97;;
69847;SDS011;57143;55.940;37.496;2023-06-14T02:21:48;11.55;;;5.25;;
69847;SDS011;57143;55.940;37.496;2023-06-14T02:24:15;11.85;;;4.63;;
69847;SDS011;57143;55.940;37.496;2023-06-14T02:26:42;11.70;;;5.45;;
69847;SDS011;57143;55.940;37.496;2023-06-14T02:29:09;10.03;;;4.70;;
69847;SDS011;57143;55.940;37.496;2023-06-14T02:31:40;10.40;;;5.03;;
69847;SDS011;57143;55.940;37.496;2023-06-14T02:34:08;12.57;;;4.95;;
69847;SDS011;57143;55.940;37.496;2023-06-14T02:36:35;9.52;;;4.60;;
69847;SDS011;57143;55.940;37.496;2023-06-14T02:39:07;10.93;;;4.68;;
69847;SDS011;57143;55.940;37.496;2023-06-14T02:41:35;11.27;;;4.50;;
69847;SDS011;57143;55.940;37.496;2023-06-14T02:44:03;12.57;;;5.32;;
69847;SDS011;57143;55.940;37.496;2023-06-14T02:46:30;10.05;;;5.00;;
69847;SDS011;57143;55.940;37.496;2023-06-14T02:48:58;11.60;;;4.22;;
69847;SDS011;57143;55.940;37.496;2023-06-14T02:51:27;10.23;;;4.32;;
69847;SDS011;57143;55.940;37.496;2023-06-14T02:53:54;11.10;;;4.60;;
69847;SDS011;57143;55.940;37.496;2023-06-14T02:56:21;11.43;;;4.10;;
69847;SDS011;57143;55.940;37.496;2023-06-14T02:58:48;9.25;;;4.38;;
69847;SDS011;57143;55.940;37.496;2023-06-14T03:01:16;9.27;;;4.22;;
69847;SDS011;57143;55.940;37.496;2023-06-14T03:03:43;10.10;;;4.18;;
69847;SDS011;57143;55.940;37.496;2023-06-14T03:06:10;10.83;;;4.77;;
69847;SDS011;57143;55.940;37.496;2023-06-14T03:08:39;10.48;;;4.18;;
69847;SDS011;57143;55.940;37.496;2023-06-14T03:11:07;11.90;;;4.53;;
69847;SDS011;57143;55.940;37.496;2023-06-14T03:13:34;10.70;;;4.65;;
69847;SDS011;57143;55.940;37.496;2023-06-14T03:16:02;11.93;;;4.43;;
69847;SDS011;57143;55.940;37.496;2023-06-14T03:18:30;8.33;;;3.87;;
69847;SDS011;57143;55.940;37.496;2023-06-14T03:21:00;10.18;;;3.90;;
69847;SDS011;57143;55.940;37.496;2023-06-14T03:23:28;9.48;;;4.00;;
69847;SDS011;57143;55.940;37.496;2023-06-14T03:25:56;8.20;;;4.10;;
69847;SDS011;57143;55.940;37.496;2023-06-14T03:28:24;9.98;;;4.07;;
69847;SDS011;57143;55.940;37.496;2023-06-14T03:30:51;9.73;;;4.10;;
69847;SDS011;57143;55.940;37.496;2023-06-14T03:33:18;10.55;;;4.22;;
69847;SDS011;57143;55.940;37.496;2023-06-14T03:35:46;9.18;;;3.80;;
69847;SDS011;57143;55.940;37.496;2023-06-14T03:38:13;8.73;;;4.07;;
69847;SDS011;57143;55.940;37.496;2023-06-14T03:40:40;7.57;;;3.58;;
69847;SDS011;57143;55.940;37.496;2023-06-14T03:43:09;9.63;;;4.30;;
69847;SDS011;57143;55.940;37.496;2023-06-14T03:45:36;13.15;;;4.32;;
69847;SDS011;57143;55.940;37.496;2023-06-14T03:48:03;9.43;;;4.15;;
69847;SDS011;57143;55.940;37.496;2023-06-14T03:50:32;11.23;;;3.83;;
69847;SDS011;57143;55.940;37.496;2023-06-14T03:52:59;6.90;;;3.90;;
69847;SDS011;57143;55.940;37.496;2023-06-14T03:55:27;9.17;;;4.50;;
69847;SDS011;57143;55.940;37.496;2023-06-14T03:57:56;8.40;;;3.95;;
69847;SDS011;57143;55.940;37.496;2023-06-14T04:00:25;7.50;;;3.92;;
69847;SDS011;57143;55.940;37.496;2023-06-14T04:02:52;7.63;;;3.97;;
69847;SDS011;57143;55.940;37.496;2023-06-14T04:05:20;9.73;;;4.20;;
69847;SDS011;57143;55.940;37.496;2023-06-14T04:07:47;10.33;;;4.07;;
69847;SDS011;57143;55.940;37.496;2023-06-14T04:10:16;9.40;;;3.72;;
69847;SDS011;57143;55.940;37.496;2023-06-14T04:12:43;9.05;;;4.13;;
69847;SDS011;57143;55.940;37.496;2023-06-14T04:15:11;8.70;;;3.95;;
69847;SDS011;57143;55.940;37.496;2023-06-14T04:17:40;9.00;;;4.53;;
69847;SDS011;57143;55.940;37.496;2023-06-14T04:20:07;6.97;;;3.70;;
69847;SDS011;57143;55.940;37.496;2023-06-14T04:22:36;9.90;;;4.18;;
69847;SDS011;57143;55.940;37.496;2023-06-14T04:25:03;8.40;;;4.10;;
69847;SDS011;57143;55.940;37.496;2023-06-14T04:27:31;8.52;;;4.07;;
69847;SDS011;57143;55.940;37.496;2023-06-14T04:30:02;9.43;;;4.65;;
69847;SDS011;57143;55.940;37.496;2023-06-14T04:32:30;7.13;;;3.93;;
69847;SDS011;57143;55.940;37.496;2023-06-14T04:35:05;11.10;;;4.30;;
69847;SDS011;57143;55.940;37.496;2023-06-14T04:37:33;7.57;;;3.72;;
69847;SDS011;57143;55.940;37.496;2023-06-14T04:40:05;6.88;;;3.90;;
69847;SDS011;57143;55.940;37.496;2023-06-14T04:42:33;7.68;;;3.40;;
69847;SDS011;57143;55.940;37.496;2023-06-14T04:45:02;9.43;;;4.13;;
69847;SDS011;57143;55.940;37.496;2023-06-14T04:47:30;9.63;;;3.35;;
69847;SDS011;57143;55.940;37.496;2023-06-14T04:49:57;9.55;;;4.03;;
69847;SDS011;57143;55.940;37.496;2023-06-14T04:52:27;10.05;;;3.63;;
69847;SDS011;57143;55.940;37.496;2023-06-14T04:54:55;8.80;;;3.80;;
69847;SDS011;57143;55.940;37.496;2023-06-14T04:57:22;8.33;;;3.67;;
69847;SDS011;57143;55.940;37.496;2023-06-14T04:59:50;8.82;;;3.70;;
69847;SDS011;57143;55.940;37.496;2023-06-14T05:02:20;10.75;;;3.58;;
69847;SDS011;57143;55.940;37.496;2023-06-14T05:04:49;9.68;;;3.78;;
69847;SDS011;57143;55.940;37.496;2023-06-14T05:07:17;7.60;;;3.50;;
69847;SDS011;57143;55.940;37.496;2023-06-14T05:09:46;8.30;;;3.57;;
69847;SDS011;57143;55.940;37.496;2023-06-14T05:12:14;7.63;;;3.92;;
69847;SDS011;57143;55.940;37.496;2023-06-14T05:14:43;8.30;;;3.33;;
69847;SDS011;57143;55.940;37.496;2023-06-14T05:17:11;8.07;;;4.15;;
69847;SDS011;57143;55.940;37.496;2023-06-14T05:19:38;8.75;;;3.83;;
69847;SDS011;57143;55.940;37.496;2023-06-14T05:22:06;9.47;;;3.80;;
69847;SDS011;57143;55.940;37.496;2023-06-14T05:24:33;8.90;;;4.03;;
69847;SDS011;57143;55.940;37.496;2023-06-14T05:27:02;7.20;;;3.60;;
69847;SDS011;57143;55.940;37.496;2023-06-14T05:29:29;7.78;;;3.83;;
69847;SDS011;57143;55.940;37.496;2023-06-14T05:31:56;7.20;;;3.28;;
69847;SDS011;57143;55.940;37.496;2023-06-14T05:34:24;9.43;;;3.97;;
69847;SDS011;57143;55.940;37.496;2023-06-14T05:36:51;6.63;;;3.20;;
69847;SDS011;57143;55.940;37.496;2023-06-14T05:39:18;7.93;;;3.63;;
69847;SDS011;57143;55.940;37.496;2023-06-14T05:41:45;7.57;;;3.78;;
69847;SDS011;57143;55.940;37.496;2023-06-14T05:44:14;9.05;;;3.08;;
69847;SDS011;57143;55.940;37.496;2023-06-14T05:46:41;6.93;;;3.53;;
69847;SDS011;57143;55.940;37.496;2023-06-14T05:49:08;5.85;;;3.22;;
69847;SDS011;57143;55.940;37.496;2023-06-14T05:51:37;7.65;;;3.63;;
69847;SDS011;57143;55.940;37.496;2023-06-14T05:54:04;8.75;;;3.83;;
69847;SDS011;57143;55.940;37.496;2023-06-14T05:56:31;6.90;;;3.60;;
69847;SDS011;57143;55.940;37.496;2023-06-14T05:58:58;6.83;;;3.37;;
69847;SDS011;57143;55.940;37.496;2023-06-14T06:01:27;8.93;;;2.97;;
69847;SDS011;57143;55.940;37.496;2023-06-14T06:03:54;6.60;;;2.70;;
69847;SDS011;57143;55.940;37.496;2023-06-14T06:06:21;9.40;;;2.67;;
69847;SDS011;57143;55.940;37.496;2023-06-14T06:08:48;7.75;;;3.22;;
69847;SDS011;57143;55.940;37.496;2023-06-14T06:11:15;6.33;;;3.20;;
69847;SDS011;57143;55.940;37.496;2023-06-14T06:13:42;9.73;;;3.03;;
69847;SDS011;57143;55.940;37.496;2023-06-14T06:16:10;5.90;;;2.95;;
69847;SDS011;57143;55.940;37.496;2023-06-14T06:18:38;6.32;;;2.80;;
69847;SDS011;57143;55.940;37.496;2023-06-14T06:21:05;7.18;;;3.00;;
69847;SDS011;57143;55.940;37.496;2023-06-14T06:23:33;6.77;;;2.60;;
69847;SDS011;57143;55.940;37.496;2023-06-14T06:26:01;7.75;;;2.42;;
69847;SDS011;57143;55.940;37.496;2023-06-14T06:28:28;7.50;;;3.38;;
69847;SDS011;57143;55.940;37.496;2023-06-14T06:30:55;6.55;;;2.72;;
69847;SDS011;57143;55.940;37.496;2023-06-14T06:33:22;7.43;;;2.78;;
69847;SDS011;57143;55.940;37.496;2023-06-14T06:35:51;5.90;;;3.10;;
69847;SDS011;57143;55.940;37.496;2023-06-14T06:38:18;9.02;;;3.03;;
69847;SDS011;57143;55.940;37.496;2023-06-14T06:40:46;7.20;;;3.20;;
69847;SDS011;57143;55.940;37.496;2023-06-14T06:43:13;8.88;;;2.22;;
69847;SDS011;57143;55.940;37.496;2023-06-14T06:45:42;9.68;;;2.80;;
69847;SDS011;57143;55.940;37.496;2023-06-14T06:48:09;7.03;;;2.70;;
69847;SDS011;57143;55.940;37.496;2023-06-14T06:50:37;6.88;;;2.50;;
69847;SDS011;57143;55.940;37.496;2023-06-14T06:53:06;6.75;;;2.60;;
69847;SDS011;57143;55.940;37.496;2023-06-14T06:55:33;7.63;;;2.53;;
69847;SDS011;57143;55.940;37.496;2023-06-14T06:58:00;6.30;;;2.50;;
69847;SDS011;57143;55.940;37.496;2023-06-14T07:00:30;5.93;;;2.53;;
69847;SDS011;57143;55.940;37.496;2023-06-14T07:02:58;7.57;;;2.53;;
69847;SDS011;57143;55.940;37.496;2023-06-14T07:05:25;7.03;;;2.70;;
69847;SDS011;57143;55.940;37.496;2023-06-14T07:07:52;6.00;;;2.83;;
69847;SDS011;57143;55.940;37.496;2023-06-14T07:10:21;7.93;;;2.78;;
69847;SDS011;57143;55.940;37.496;2023-06-14T07:12:49;6.60;;;2.90;;
69847;SDS011;57143;55.940;37.496;2023-06-14T07:15:17;8.57;;;3.10;;
69847;SDS011;57143;55.940;37.496;2023-06-14T07:17:44;7.43;;;3.00;;
69847;SDS011;57143;55.940;37.496;2023-06-14T07:20:12;6.75;;;2.78;;
69847;SDS011;57143;55.940;37.496;2023-06-14T07:22:41;7.30;;;2.95;;
69847;SDS011;57143;55.940;37.496;2023-06-14T07:25:08;8.43;;;3.17;;
69847;SDS011;57143;55.940;37.496;2023-06-14T07:27:40;11.00;;;3.00;;
69847;SDS011;57143;55.940;37.496;2023-06-14T07:30:08;7.55;;;2.88;;
69847;SDS011;57143;55.940;37.496;2023-06-14T07:32:36;8.05;;;3.17;;
69847;SDS011;57143;55.940;37.496;2023-06-14T07:35:03;12.95;;;4.80;;
69847;SDS011;57143;55.940;37.496;2023-06-14T07:37:31;7.80;;;3.83;;
69847;SDS011;57143;55.940;37.496;2023-06-14T07:39:59;9.10;;;3.30;;
69847;SDS011;57143;55.940;37.496;2023-06-14T07:42:28;6.03;;;2.55;;
69847;SDS011;57143;55.940;37.496;2023-06-14T07:44:57;7.72;;;3.10;;
69847;SDS011;57143;55.940;37.496;2023-06-14T07:47:24;8.15;;;2.72;;
69847;SDS011;57143;55.940;37.496;2023-06-14T07:49:51;7.83;;;3.57;;
69847;SDS011;57143;55.940;37.496;2023-06-14T07:52:19;7.85;;;3.58;;
69847;SDS011;57143;55.940;37.496;2023-06-14T07:54:46;7.95;;;3.28;;
69847;SDS011;57143;55.940;37.496;2023-06-14T07:57:13;6.05;;;3.00;;
69847;SDS011;57143;55.940;37.496;2023-06-14T07:59:40;6.68;;;2.60;;
69847;SDS011;57143;55.940;37.496;2023-06-14T08:02:09;6.90;;;2.50;;
69847;SDS011;57143;55.940;37.496;2023-06-14T08:04:36;11.48;;;3.10;;
69847;SDS011;57143;55.940;37.496;2023-06-14T08:07:03;5.85;;;2.53;;
69847;SDS011;57143;55.940;37.496;2023-06-14T08:09:30;7.28;;;3.03;;
69847;SDS011;57143;55.940;37.496;2023-06-14T08:11:58;6.75;;;2.90;;
69847;SDS011;57143;55.940;37.496;2023-06-14T08:14:25;7.10;;;3.00;;
69847;SDS011;57143;55.940;37.496;2023-06-14T08:16:52;6.63;;;2.72;;
69847;SDS011;57143;55.940;37.496;2023-06-14T08:19:21;6.65;;;3.50;;
69847;SDS011;57143;55.940;37.496;2023-06-14T08:21:48;6.85;;;3.13;;
69847;SDS011;57143;55.940;37.496;2023-06-14T08:24:15;6.15;;;2.95;;
69847;SDS011;57143;55.940;37.496;2023-06-14T08:26:44;11.60;;;3.50;;
69847;SDS011;57143;55.940;37.496;2023-06-14T08:29:11;6.85;;;2.75;;
69847;SDS011;57143;55.940;37.496;2023-06-14T08:31:38;7.78;;;3.40;;
69847;SDS011;57143;55.940;37.496;2023-06-14T08:34:06;6.15;;;3.08;;
69847;SDS011;57143;55.940;37.496;2023-06-14T08:36:34;8.60;;;3.00;;
69847;SDS011;57143;55.940;37.496;2023-06-14T08:39:01;9.87;;;3.33;;
69847;SDS011;57143;55.940;37.496;2023-06-14T08:41:29;10.02;;;3.13;;
69847;SDS011;57143;55.940;37.496;2023-06-14T08:43:56;7.18;;;3.60;;
69847;SDS011;57143;55.940;37.496;2023-06-14T08:46:25;8.52;;;3.90;;
69847;SDS011;57143;55.940;37.496;2023-06-14T08:48:54;10.85;;;4.38;;
69847;SDS011;57143;55.940;37.496;2023-06-14T08:51:23;7.80;;;3.07;;
69847;SDS011;57143;55.940;37.496;2023-06-14T08:53:54;7.93;;;3.47;;
69847;SDS011;57143;55.940;37.496;2023-06-14T08:56:23;6.50;;;2.97;;
69847;SDS011;57143;55.940;37.496;2023-06-14T08:58:53;7.47;;;2.80;;
69847;SDS011;57143;55.940;37.496;2023-06-14T09:01:21;6.78;;;3.10;;
69847;SDS011;57143;55.940;37.496;2023-06-14T09:03:49;9.00;;;3.23;;
69847;SDS011;57143;55.940;37.496;2023-06-14T09:06:17;6.38;;;2.53;;
69847;SDS011;57143;55.940;37.496;2023-06-14T09:08:45;8.38;;;4.32;;
69847;SDS011;57143;55.940;37.496;2023-06-14T09:11:15;12.65;;;5.13;;
69847;SDS011;57143;55.940;37.496;2023-06-14T09:13:44;9.20;;;3.63;;
69847;SDS011;57143;55.940;37.496;2023-06-14T09:16:12;11.17;;;4.93;;
69847;SDS011;57143;55.940;37.496;2023-06-14T09:18:40;8.82;;;4.38;;
69847;SDS011;57143;55.940;37.496;2023-06-14T09:21:10;9.98;;;3.40;;
69847;SDS011;57143;55.940;37.496;2023-06-14T09:23:38;8.13;;;3.35;;
69847;SDS011;57143;55.940;37.496;2023-06-14T09:26:06;6.05;;;2.85;;
69847;SDS011;57143;55.940;37.496;2023-06-14T09:28:37;7.70;;;3.00;;
69847;SDS011;57143;55.940;37.496;2023-06-14T09:31:08;6.93;;;2.47;;
69847;SDS011;57143;55.940;37.496;2023-06-14T09:33:36;7.25;;;2.83;;
69847;SDS011;57143;55.940;37.496;2023-06-14T09:36:03;7.15;;;2.53;;
69847;SDS011;57143;55.940;37.496;2023-06-14T09:38:31;7.28;;;2.60;;
69847;SDS011;57143;55.940;37.496;2023-06-14T09:41:00;8.87;;;3.60;;
69847;SDS011;57143;55.940;37.496;2023-06-14T09:43:30;6.05;;;2.50;;
69847;SDS011;57143;55.940;37.496;2023-06-14T09:46:01;6.20;;;2.75;;
69847;SDS011;57143;55.940;37.496;2023-06-14T09:48:31;7.00;;;2.75;;
69847;SDS011;57143;55.940;37.496;2023-06-14T09:50:58;6.53;;;2.25;;
69847;SDS011;57143;55.940;37.496;2023-06-14T09:53:27;6.57;;;3.10;;
69847;SDS011;57143;55.940;37.496;2023-06-14T09:55:56;8.07;;;2.63;;
69847;SDS011;57143;55.940;37.496;2023-06-14T09:58:25;7.18;;;3.30;;
69847;SDS011;57143;55.940;37.496;2023-06-14T10:00:54;7.20;;;2.83;;
69847;SDS011;57143;55.940;37.496;2023-06-14T10:03:25;6.15;;;2.35;;
69847;SDS011;57143;55.940;37.496;2023-06-14T10:05:55;5.67;;;2.30;;
69847;SDS011;57143;55.940;37.496;2023-06-14T10:08:27;6.85;;;2.75;;
69847;SDS011;57143;55.940;37.496;2023-06-14T10:10:58;6.72;;;3.17;;
69847;SDS011;57143;55.940;37.496;2023-06-14T10:13:25;6.72;;;2.67;;
69847;SDS011;57143;55.940;37.496;2023-06-14T10:15:57;7.78;;;2.58;;
69847;SDS011;57143;55.940;37.496;2023-06-14T10:18:33;7.20;;;2.77;;
69847;SDS011;57143;55.940;37.496;2023-06-14T10:21:17;6.93;;;2.75;;
69847;SDS011;57143;55.940;37.496;2023-06-14T10:23:50;7.63;;;2.83;;
69847;SDS011;57143;55.940;37.496;2023-06-14T10:26:21;6.28;;;2.72;;
69847;SDS011;57143;55.940;37.496;2023-06-14T10:28:56;7.60;;;2.67;;
69847;SDS011;57143;55.940;37.496;2023-06-14T10:31:39;5.90;;;2.77;;
69847;SDS011;57143;55.940;37.496;2023-06-14T10:34:09;6.72;;;2.42;;
69847;SDS011;57143;55.940;37.496;2023-06-14T10:36:37;7.10;;;2.85;;
69847;SDS011;57143;55.940;37.496;2023-06-14T10:39:07;7.72;;;3.10;;
69847;SDS011;57143;55.940;37.496;2023-06-14T10:41:37;7.88;;;2.80;;
69847;SDS011;57143;55.940;37.496;2023-06-14T10:46:58;7.63;;;3.00;;
69847;SDS011;57143;55.940;37.496;2023-06-14T10:49:40;7.00;;;2.92;;
69847;SDS011;57143;55.940;37.496;2023-06-14T10:52:10;5.72;;;2.58;;
69847;SDS011;57143;55.940;37.496;2023-06-14T10:57:40;8.37;;;2.60;;
69847;SDS011;57143;55.940;37.496;2023-06-14T11:00:09;6.63;;;2.13;;
69847;SDS011;57143;55.940;37.496;2023-06-14T11:06:08;6.88;;;2.60;;
69847;SDS011;57143;55.940;37.496;2023-06-14T11:08:51;6.68;;;2.28;;
69847;SDS011;57143;55.940;37.496;2023-06-14T11:11:36;8.13;;;2.20;;
69847;SDS011;57143;55.940;37.496;2023-06-14T11:14:06;8.93;;;2.70;;
69847;SDS011;57143;55.940;37.496;2023-06-14T11:16:33;5.85;;;2.30;;
69847;SDS011;57143;55.940;37.496;2023-06-14T11:19:00;5.95;;;2.70;;
69847;SDS011;57143;55.940;37.496;2023-06-14T11:21:31;5.68;;;2.30;;
69847;SDS011;57143;55.940;37.496;2023-06-14T11:23:58;5.93;;;2.30;;
69847;SDS011;57143;55.940;37.496;2023-06-14T11:26:26;5.50;;;2.17;;
69847;SDS011;57143;55.940;37.496;2023-06-14T11:28:57;7.07;;;2.50;;
69847;SDS011;57143;55.940;37.496;2023-06-14T11:31:25;6.95;;;2.63;;
69847;SDS011;57143;55.940;37.496;2023-06-14T11:33:54;6.57;;;2.35;;
69847;SDS011;57143;55.940;37.496;2023-06-14T11:36:22;6.93;;;2.50;;
69847;SDS011;57143;55.940;37.496;2023-06-14T11:38:51;8.48;;;2.85;;
69847;SDS011;57143;55.940;37.496;2023-06-14T11:41:25;6.15;;;2.60;;
69847;SDS011;57143;55.940;37.496;2023-06-14T11:43:52;5.97;;;2.80;;
69847;SDS011;57143;55.940;37.496;2023-06-14T11:46:20;7.07;;;2.90;;
69847;SDS011;57143;55.940;37.496;2023-06-14T11:48:50;6.87;;;2.30;;
69847;SDS011;57143;55.940;37.496;2023-06-14T11:51:18;7.85;;;2.40;;
69847;SDS011;57143;55.940;37.496;2023-06-14T11:53:46;5.95;;;2.60;;
69847;SDS011;57143;55.940;37.496;2023-06-14T11:56:15;7.28;;;2.47;;
69847;SDS011;57143;55.940;37.496;2023-06-14T11:58:42;7.20;;;2.55;;
69847;SDS011;57143;55.940;37.496;2023-06-14T12:01:09;5.93;;;2.73;;
69847;SDS011;57143;55.940;37.496;2023-06-14T12:03:46;6.20;;;2.53;;
69847;SDS011;57143;55.940;37.496;2023-06-14T12:06:15;6.93;;;2.70;;
69847;SDS011;57143;55.940;37.496;2023-06-14T12:08:43;10.40;;;2.60;;
69847;SDS011;57143;55.940;37.496;2023-06-14T12:11:11;6.82;;;2.65;;
69847;SDS011;57143;55.940;37.496;2023-06-14T12:13:41;8.90;;;2.47;;
69847;SDS011;57143;55.940;37.496;2023-06-14T12:16:08;8.00;;;2.50;;
69847;SDS011;57143;55.940;37.496;2023-06-14T12:18:37;7.80;;;3.00;;
69847;SDS011;57143;55.940;37.496;2023-06-14T12:21:05;7.97;;;2.85;;
69847;SDS011;57143;55.940;37.496;2023-06-14T12:23:40;9.38;;;2.88;;
69847;SDS011;57143;55.940;37.496;2023-06-14T12:26:11;8.07;;;3.07;;
69847;SDS011;57143;55.940;37.496;2023-06-14T12:28:41;7.20;;;2.70;;
69847;SDS011;57143;55.940;37.496;2023-06-14T12:31:09;8.77;;;2.95;;
69847;SDS011;57143;55.940;37.496;2023-06-14T12:33:37;7.28;;;2.80;;
69847;SDS011;57143;55.940;37.496;2023-06-14T12:36:05;6.10;;;2.17;;
69847;SDS011;57143;55.940;37.496;2023-06-14T12:38:34;7.10;;;2.50;;
69847;SDS011;57143;55.940;37.496;2023-06-14T12:41:02;5.72;;;2.55;;
69847;SDS011;57143;55.940;37.496;2023-06-14T12:43:30;10.50;;;3.25;;
69847;SDS011;57143;55.940;37.496;2023-06-14T12:45:59;8.35;;;3.03;;
69847;SDS011;57143;55.940;37.496;2023-06-14T12:48:26;7.30;;;2.60;;
69847;SDS011;57143;55.940;37.496;2023-06-14T12:50:55;7.00;;;2.60;;
69847;SDS011;57143;55.940;37.496;2023-06-14T12:53:23;6.13;;;2.20;;
69847;SDS011;57143;55.940;37.496;2023-06-14T12:55:50;6.90;;;2.42;;
69847;SDS011;57143;55.940;37.496;2023-06-14T12:58:18;7.13;;;2.40;;
69847;SDS011;57143;55.940;37.496;2023-06-14T13:00:46;6.30;;;2.63;;
69847;SDS011;57143;55.940;37.496;2023-06-14T13:03:15;8.57;;;2.53;;
69847;SDS011;57143;55.940;37.496;2023-06-14T13:05:42;6.45;;;2.55;;
69847;SDS011;57143;55.940;37.496;2023-06-14T13:08:09;6.50;;;2.58;;
69847;SDS011;57143;55.940;37.496;2023-06-14T13:10:36;7.65;;;2.70;;
69847;SDS011;57143;55.940;37.496;2023-06-14T13:13:04;5.80;;;2.25;;
69847;SDS011;57143;55.940;37.496;2023-06-14T13:15:32;5.83;;;2.80;;
69847;SDS011;57143;55.940;37.496;2023-06-14T13:18:00;7.90;;;2.90;;
69847;SDS011;57143;55.940;37.496;2023-06-14T13:20:29;8.93;;;3.00;;
69847;SDS011;57143;55.940;37.496;2023-06-14T13:22:57;8.55;;;3.10;;
69847;SDS011;57143;55.940;37.496;2023-06-14T13:25:24;5.60;;;2.50;;
69847;SDS011;57143;55.940;37.496;2023-06-14T13:27:51;5.83;;;2.37;;
69847;SDS011;57143;55.940;37.496;2023-06-14T13:30:18;6.50;;;2.65;;
69847;SDS011;57143;55.940;37.496;2023-06-14T13:32:47;6.57;;;2.70;;
69847;SDS011;57143;55.940;37.496;2023-06-14T13:35:14;8.48;;;2.80;;
69847;SDS011;57143;55.940;37.496;2023-06-14T13:37:43;5.60;;;2.38;;
69847;SDS011;57143;55.940;37.496;2023-06-14T13:40:11;6.73;;;2.53;;
69847;SDS011;57143;55.940;37.496;2023-06-14T13:42:38;9.10;;;2.78;;
69847;SDS011;57143;55.940;37.496;2023-06-14T13:45:06;8.18;;;2.70;;
69847;SDS011;57143;55.940;37.496;2023-06-14T13:47:34;7.38;;;2.38;;
69847;SDS011;57143;55.940;37.496;2023-06-14T13:50:01;6.07;;;2.40;;
69847;SDS011;57143;55.940;37.496;2023-06-14T13:52:29;6.67;;;2.27;;
69847;SDS011;57143;55.940;37.496;2023-06-14T13:54:58;7.03;;;2.55;;
69847;SDS011;57143;55.940;37.496;2023-06-14T13:57:25;10.38;;;3.08;;
69847;SDS011;57143;55.940;37.496;2023-06-14T13:59:55;6.57;;;2.90;;
69847;SDS011;57143;55.940;37.496;2023-06-14T14:02:26;7.10;;;2.38;;
69847;SDS011;57143;55.940;37.496;2023-06-14T14:04:54;7.33;;;2.57;;
69847;SDS011;57143;55.940;37.496;2023-06-14T14:07:21;7.20;;;2.58;;
69847;SDS011;57143;55.940;37.496;2023-06-14T14:09:49;7.82;;;3.05;;
69847;SDS011;57143;55.940;37.496;2023-06-14T14:12:17;6.10;;;2.63;;
69847;SDS011;57143;55.940;37.496;2023-06-14T14:14:45;6.53;;;2.65;;
69847;SDS011;57143;55.940;37.496;2023-06-14T14:17:12;6.27;;;2.50;;
69847;SDS011;57143;55.940;37.496;2023-06-14T14:19:39;6.78;;;2.42;;
69847;SDS011;57143;55.940;37.496;2023-06-14T14:22:06;6.25;;;2.63;;
69847;SDS011;57143;55.940;37.496;2023-06-14T14:24:33;6.68;;;2.45;;
69847;SDS011;57143;55.940;37.496;2023-06-14T14:27:01;6.88;;;2.70;;
69847;SDS011;57143;55.940;37.496;2023-06-14T14:29:30;8.03;;;2.40;;
69847;SDS011;57143;55.940;37.496;2023-06-14T14:31:57;6.32;;;2.42;;
69847;SDS011;57143;55.940;37.496;2023-06-14T14:34:24;9.27;;;2.78;;
69847;SDS011;57143;55.940;37.496;2023-06-14T14:36:51;6.88;;;2.70;;
69847;SDS011;57143;55.940;37.496;2023-06-14T14:39:19;8.18;;;3.10;;
69847;SDS011;57143;55.940;37.496;2023-06-14T14:41:46;7.17;;;3.00;;
69847;SDS011;57143;55.940;37.496;2023-06-14T14:44:14;6.72;;;2.28;;
69847;SDS011;57143;55.940;37.496;2023-06-14T14:46:42;6.70;;;2.17;;